sensor_id;sensor_type;location;lat;lon;timestamp;P1;durP1;ratioP1;P2;durP2;ratioP2
21615;SDS011;10970;48.714;9.584;2023-03-30T00:01:51;7.97;;;6.60;;
21615;SDS011;10970;48.714;9.584;2023-03-30T00:04:18;7.97;;;4.97;;
21615;SDS011;10970;48.714;9.584;2023-03-30T00:06:46;9.03;;;6.63;;
21615;SDS011;10970;48.714;9.584;2023-03-30T00:09:14;8.10;;;7.13;;
21615;SDS011;10970;48.714;9.584;2023-03-30T00:11:40;7.60;;;6.80;;
21615;SDS011;10970;48.714;9.584;2023-03-30T00:14:07;9.07;;;6.67;;
21615;SDS011;10970;48.714;9.584;2023-03-30T00:16:32;6.47;;;5.80;;
21615;SDS011;10970;48.714;9.584;2023-03-30T00:18:58;6.57;;;5.87;;
21615;SDS011;10970;48.714;9.584;2023-03-30T00:21:24;7.43;;;5.60;;
21615;SDS011;10970;48.714;9.584;2023-03-30T00:23:52;5.03;;;4.53;;
21615;SDS011;10970;48.714;9.584;2023-03-30T00:26:17;5.10;;;4.27;;
21615;SDS011;10970;48.714;9.584;2023-03-30T00:28:43;7.77;;;5.50;;
21615;SDS011;10970;48.714;9.584;2023-03-30T00:31:10;8.13;;;5.80;;
21615;SDS011;10970;48.714;9.584;2023-03-30T00:33:35;5.47;;;4.97;;
21615;SDS011;10970;48.714;9.584;2023-03-30T00:36:01;5.57;;;5.07;;
21615;SDS011;10970;48.714;9.584;2023-03-30T00:38:27;7.13;;;5.80;;
21615;SDS011;10970;48.714;9.584;2023-03-30T00:40:54;8.20;;;4.40;;
21615;SDS011;10970;48.714;9.584;2023-03-30T00:43:22;6.70;;;4.40;;
21615;SDS011;10970;48.714;9.584;2023-03-30T00:45:49;7.60;;;4.10;;
21615;SDS011;10970;48.714;9.584;2023-03-30T00:48:22;5.03;;;3.80;;
21615;SDS011;10970;48.714;9.584;2023-03-30T00:50:59;7.10;;;4.10;;
21615;SDS011;10970;48.714;9.584;2023-03-30T00:55:56;6.50;;;4.27;;
21615;SDS011;10970;48.714;9.584;2023-03-30T00:58:23;6.40;;;4.00;;
21615;SDS011;10970;48.714;9.584;2023-03-30T01:00:49;7.90;;;4.30;;
21615;SDS011;10970;48.714;9.584;2023-03-30T01:03:16;4.83;;;4.17;;
21615;SDS011;10970;48.714;9.584;2023-03-30T01:05:43;4.63;;;3.53;;
21615;SDS011;10970;48.714;9.584;2023-03-30T01:08:10;5.20;;;4.70;;
21615;SDS011;10970;48.714;9.584;2023-03-30T01:10:37;6.90;;;4.67;;
21615;SDS011;10970;48.714;9.584;2023-03-30T01:13:03;6.90;;;4.40;;
21615;SDS011;10970;48.714;9.584;2023-03-30T01:15:31;5.20;;;4.57;;
21615;SDS011;10970;48.714;9.584;2023-03-30T01:20:42;5.53;;;4.30;;
21615;SDS011;10970;48.714;9.584;2023-03-30T01:28:57;4.10;;;3.70;;
21615;SDS011;10970;48.714;9.584;2023-03-30T01:34:26;3.47;;;3.20;;
21615;SDS011;10970;48.714;9.584;2023-03-30T01:37:21;6.53;;;4.17;;
21615;SDS011;10970;48.714;9.584;2023-03-30T01:39:58;8.60;;;4.07;;
21615;SDS011;10970;48.714;9.584;2023-03-30T01:45:17;4.53;;;4.00;;
21615;SDS011;10970;48.714;9.584;2023-03-30T01:47:50;5.40;;;4.40;;
21615;SDS011;10970;48.714;9.584;2023-03-30T01:50:24;4.27;;;3.93;;
21615;SDS011;10970;48.714;9.584;2023-03-30T01:52:59;7.00;;;4.37;;
21615;SDS011;10970;48.714;9.584;2023-03-30T01:58:47;5.57;;;4.70;;
21615;SDS011;10970;48.714;9.584;2023-03-30T02:01:17;8.77;;;5.07;;
21615;SDS011;10970;48.714;9.584;2023-03-30T02:03:46;6.17;;;4.43;;
21615;SDS011;10970;48.714;9.584;2023-03-30T02:06:19;6.67;;;4.77;;
21615;SDS011;10970;48.714;9.584;2023-03-30T02:09:09;10.50;;;5.07;;
21615;SDS011;10970;48.714;9.584;2023-03-30T02:11:39;9.23;;;4.80;;
21615;SDS011;10970;48.714;9.584;2023-03-30T02:14:09;5.60;;;3.80;;
21615;SDS011;10970;48.714;9.584;2023-03-30T02:16:40;10.47;;;4.03;;
21615;SDS011;10970;48.714;9.584;2023-03-30T02:19:12;5.10;;;3.90;;
21615;SDS011;10970;48.714;9.584;2023-03-30T02:21:39;6.77;;;4.70;;
21615;SDS011;10970;48.714;9.584;2023-03-30T02:24:07;5.77;;;4.20;;
21615;SDS011;10970;48.714;9.584;2023-03-30T02:26:43;4.00;;;3.50;;
21615;SDS011;10970;48.714;9.584;2023-03-30T02:29:11;5.40;;;4.80;;
21615;SDS011;10970;48.714;9.584;2023-03-30T02:31:38;14.73;;;4.70;;
21615;SDS011;10970;48.714;9.584;2023-03-30T02:37:14;6.93;;;4.40;;
21615;SDS011;10970;48.714;9.584;2023-03-30T02:40:06;10.87;;;4.60;;
21615;SDS011;10970;48.714;9.584;2023-03-30T02:42:44;5.07;;;4.57;;
21615;SDS011;10970;48.714;9.584;2023-03-30T02:45:21;8.60;;;4.43;;
21615;SDS011;10970;48.714;9.584;2023-03-30T02:55:36;9.50;;;5.20;;
21615;SDS011;10970;48.714;9.584;2023-03-30T02:58:23;4.80;;;4.40;;
21615;SDS011;10970;48.714;9.584;2023-03-30T03:01:36;7.13;;;5.00;;
21615;SDS011;10970;48.714;9.584;2023-03-30T03:04:08;7.73;;;5.50;;
21615;SDS011;10970;48.714;9.584;2023-03-30T03:06:35;8.27;;;5.17;;
21615;SDS011;10970;48.714;9.584;2023-03-30T03:09:02;7.37;;;5.20;;
21615;SDS011;10970;48.714;9.584;2023-03-30T03:11:29;11.30;;;5.07;;
21615;SDS011;10970;48.714;9.584;2023-03-30T03:13:54;10.10;;;4.60;;
21615;SDS011;10970;48.714;9.584;2023-03-30T03:16:20;8.30;;;4.30;;
21615;SDS011;10970;48.714;9.584;2023-03-30T03:18:46;6.20;;;3.93;;
21615;SDS011;10970;48.714;9.584;2023-03-30T03:21:13;5.93;;;4.43;;
21615;SDS011;10970;48.714;9.584;2023-03-30T03:23:39;6.37;;;4.03;;
21615;SDS011;10970;48.714;9.584;2023-03-30T03:26:06;8.03;;;5.43;;
21615;SDS011;10970;48.714;9.584;2023-03-30T03:28:32;8.03;;;4.60;;
21615;SDS011;10970;48.714;9.584;2023-03-30T03:30:58;7.73;;;3.67;;
21615;SDS011;10970;48.714;9.584;2023-03-30T03:33:27;6.40;;;4.77;;
21615;SDS011;10970;48.714;9.584;2023-03-30T03:35:53;5.97;;;4.80;;
21615;SDS011;10970;48.714;9.584;2023-03-30T03:38:20;9.10;;;3.73;;
21615;SDS011;10970;48.714;9.584;2023-03-30T03:40:49;11.00;;;3.93;;
21615;SDS011;10970;48.714;9.584;2023-03-30T03:43:16;10.20;;;3.53;;
21615;SDS011;10970;48.714;9.584;2023-03-30T03:45:43;7.50;;;3.60;;
21615;SDS011;10970;48.714;9.584;2023-03-30T03:48:10;6.80;;;3.80;;
21615;SDS011;10970;48.714;9.584;2023-03-30T03:50:36;6.53;;;5.00;;
21615;SDS011;10970;48.714;9.584;2023-03-30T03:53:02;9.13;;;4.73;;
21615;SDS011;10970;48.714;9.584;2023-03-30T03:55:28;17.37;;;4.60;;
21615;SDS011;10970;48.714;9.584;2023-03-30T03:57:54;11.17;;;4.03;;
21615;SDS011;10970;48.714;9.584;2023-03-30T04:00:20;8.63;;;4.10;;
21615;SDS011;10970;48.714;9.584;2023-03-30T04:02:47;13.10;;;4.40;;
21615;SDS011;10970;48.714;9.584;2023-03-30T04:05:13;8.10;;;4.37;;
21615;SDS011;10970;48.714;9.584;2023-03-30T04:07:39;7.33;;;4.47;;
21615;SDS011;10970;48.714;9.584;2023-03-30T04:10:05;9.87;;;4.53;;
21615;SDS011;10970;48.714;9.584;2023-03-30T04:12:32;9.63;;;6.83;;
21615;SDS011;10970;48.714;9.584;2023-03-30T04:14:57;9.83;;;6.10;;
21615;SDS011;10970;48.714;9.584;2023-03-30T04:17:23;8.40;;;4.07;;
21615;SDS011;10970;48.714;9.584;2023-03-30T04:19:50;8.93;;;4.20;;
21615;SDS011;10970;48.714;9.584;2023-03-30T04:22:20;7.23;;;4.43;;
21615;SDS011;10970;48.714;9.584;2023-03-30T04:24:50;10.30;;;4.70;;
21615;SDS011;10970;48.714;9.584;2023-03-30T04:27:16;11.07;;;3.97;;
21615;SDS011;10970;48.714;9.584;2023-03-30T04:29:42;11.03;;;4.73;;
21615;SDS011;10970;48.714;9.584;2023-03-30T04:32:09;10.73;;;4.60;;
21615;SDS011;10970;48.714;9.584;2023-03-30T04:34:37;7.77;;;5.37;;
21615;SDS011;10970;48.714;9.584;2023-03-30T04:37:07;9.07;;;5.60;;
21615;SDS011;10970;48.714;9.584;2023-03-30T04:39:33;7.73;;;5.07;;
21615;SDS011;10970;48.714;9.584;2023-03-30T04:41:59;9.43;;;5.03;;
21615;SDS011;10970;48.714;9.584;2023-03-30T04:44:28;11.03;;;5.90;;
21615;SDS011;10970;48.714;9.584;2023-03-30T04:46:54;11.33;;;5.47;;
21615;SDS011;10970;48.714;9.584;2023-03-30T04:49:20;7.10;;;4.70;;
21615;SDS011;10970;48.714;9.584;2023-03-30T04:51:46;13.20;;;5.70;;
21615;SDS011;10970;48.714;9.584;2023-03-30T04:54:11;10.63;;;6.67;;
21615;SDS011;10970;48.714;9.584;2023-03-30T04:56:37;12.50;;;5.40;;
21615;SDS011;10970;48.714;9.584;2023-03-30T04:59:03;12.20;;;5.80;;
21615;SDS011;10970;48.714;9.584;2023-03-30T05:01:28;9.13;;;5.00;;
21615;SDS011;10970;48.714;9.584;2023-03-30T05:03:54;8.93;;;6.63;;
21615;SDS011;10970;48.714;9.584;2023-03-30T05:06:20;11.90;;;5.50;;
21615;SDS011;10970;48.714;9.584;2023-03-30T05:08:46;9.67;;;4.80;;
21615;SDS011;10970;48.714;9.584;2023-03-30T05:11:11;4.90;;;4.23;;
21615;SDS011;10970;48.714;9.584;2023-03-30T05:13:37;10.17;;;6.23;;
21615;SDS011;10970;48.714;9.584;2023-03-30T05:16:04;6.87;;;5.23;;
21615;SDS011;10970;48.714;9.584;2023-03-30T05:18:30;8.23;;;4.83;;
21615;SDS011;10970;48.714;9.584;2023-03-30T05:20:56;11.17;;;6.13;;
21615;SDS011;10970;48.714;9.584;2023-03-30T05:23:22;7.87;;;5.20;;
21615;SDS011;10970;48.714;9.584;2023-03-30T05:25:49;14.30;;;6.73;;
21615;SDS011;10970;48.714;9.584;2023-03-30T05:28:15;9.20;;;6.80;;
21615;SDS011;10970;48.714;9.584;2023-03-30T05:30:43;16.70;;;6.23;;
21615;SDS011;10970;48.714;9.584;2023-03-30T05:33:10;11.60;;;6.00;;
21615;SDS011;10970;48.714;9.584;2023-03-30T05:35:36;16.40;;;4.97;;
21615;SDS011;10970;48.714;9.584;2023-03-30T05:38:02;9.87;;;6.17;;
21615;SDS011;10970;48.714;9.584;2023-03-30T05:40:29;10.93;;;6.80;;
21615;SDS011;10970;48.714;9.584;2023-03-30T05:42:55;17.43;;;7.60;;
21615;SDS011;10970;48.714;9.584;2023-03-30T05:45:20;12.27;;;7.00;;
21615;SDS011;10970;48.714;9.584;2023-03-30T05:47:46;17.43;;;9.83;;
21615;SDS011;10970;48.714;9.584;2023-03-30T05:50:12;13.60;;;6.80;;
21615;SDS011;10970;48.714;9.584;2023-03-30T05:52:37;14.67;;;7.27;;
21615;SDS011;10970;48.714;9.584;2023-03-30T05:55:03;15.23;;;7.00;;
21615;SDS011;10970;48.714;9.584;2023-03-30T05:57:29;14.50;;;7.10;;
21615;SDS011;10970;48.714;9.584;2023-03-30T05:59:55;9.60;;;6.40;;
21615;SDS011;10970;48.714;9.584;2023-03-30T06:02:20;11.03;;;5.63;;
21615;SDS011;10970;48.714;9.584;2023-03-30T06:04:46;13.37;;;7.10;;
21615;SDS011;10970;48.714;9.584;2023-03-30T06:07:12;17.77;;;6.53;;
21615;SDS011;10970;48.714;9.584;2023-03-30T06:09:37;15.80;;;7.00;;
21615;SDS011;10970;48.714;9.584;2023-03-30T06:12:03;13.23;;;8.70;;
21615;SDS011;10970;48.714;9.584;2023-03-30T06:14:29;13.97;;;8.47;;
21615;SDS011;10970;48.714;9.584;2023-03-30T06:16:54;10.77;;;7.87;;
21615;SDS011;10970;48.714;9.584;2023-03-30T06:19:21;17.23;;;7.40;;
21615;SDS011;10970;48.714;9.584;2023-03-30T06:21:46;12.20;;;7.80;;
21615;SDS011;10970;48.714;9.584;2023-03-30T06:24:12;16.50;;;9.60;;
21615;SDS011;10970;48.714;9.584;2023-03-30T06:26:38;21.00;;;7.17;;
21615;SDS011;10970;48.714;9.584;2023-03-30T06:29:05;20.77;;;9.50;;
21615;SDS011;10970;48.714;9.584;2023-03-30T06:31:30;14.80;;;8.27;;
21615;SDS011;10970;48.714;9.584;2023-03-30T06:33:56;14.83;;;7.60;;
21615;SDS011;10970;48.714;9.584;2023-03-30T06:36:23;20.03;;;7.20;;
21615;SDS011;10970;48.714;9.584;2023-03-30T06:38:48;7.43;;;6.50;;
21615;SDS011;10970;48.714;9.584;2023-03-30T06:41:14;11.73;;;6.27;;
21615;SDS011;10970;48.714;9.584;2023-03-30T06:43:40;10.87;;;5.00;;
21615;SDS011;10970;48.714;9.584;2023-03-30T06:46:06;17.70;;;6.43;;
21615;SDS011;10970;48.714;9.584;2023-03-30T06:48:32;14.27;;;6.73;;
21615;SDS011;10970;48.714;9.584;2023-03-30T06:50:58;12.53;;;6.33;;
21615;SDS011;10970;48.714;9.584;2023-03-30T06:53:23;22.50;;;4.97;;
21615;SDS011;10970;48.714;9.584;2023-03-30T06:55:53;7.60;;;4.10;;
21615;SDS011;10970;48.714;9.584;2023-03-30T06:58:21;7.33;;;4.27;;
21615;SDS011;10970;48.714;9.584;2023-03-30T07:00:47;18.43;;;4.37;;
21615;SDS011;10970;48.714;9.584;2023-03-30T07:03:14;8.20;;;4.33;;
21615;SDS011;10970;48.714;9.584;2023-03-30T07:05:42;9.60;;;4.57;;
21615;SDS011;10970;48.714;9.584;2023-03-30T07:08:10;9.10;;;4.50;;
21615;SDS011;10970;48.714;9.584;2023-03-30T07:10:36;13.60;;;5.03;;
21615;SDS011;10970;48.714;9.584;2023-03-30T07:13:02;15.83;;;4.13;;
21615;SDS011;10970;48.714;9.584;2023-03-30T07:15:27;7.30;;;4.17;;
21615;SDS011;10970;48.714;9.584;2023-03-30T07:17:53;9.00;;;4.30;;
21615;SDS011;10970;48.714;9.584;2023-03-30T07:20:18;10.30;;;4.33;;
21615;SDS011;10970;48.714;9.584;2023-03-30T07:22:44;6.70;;;4.43;;
21615;SDS011;10970;48.714;9.584;2023-03-30T07:25:10;18.40;;;6.23;;
21615;SDS011;10970;48.714;9.584;2023-03-30T07:27:36;11.53;;;4.93;;
21615;SDS011;10970;48.714;9.584;2023-03-30T07:30:03;11.60;;;5.03;;
21615;SDS011;10970;48.714;9.584;2023-03-30T07:32:29;75.93;;;31.33;;
21615;SDS011;10970;48.714;9.584;2023-03-30T07:34:55;33.13;;;17.80;;
21615;SDS011;10970;48.714;9.584;2023-03-30T07:37:22;21.93;;;11.53;;
21615;SDS011;10970;48.714;9.584;2023-03-30T07:39:48;20.40;;;6.53;;
21615;SDS011;10970;48.714;9.584;2023-03-30T07:42:14;12.83;;;6.93;;
21615;SDS011;10970;48.714;9.584;2023-03-30T07:44:40;14.83;;;5.43;;
21615;SDS011;10970;48.714;9.584;2023-03-30T07:47:06;10.43;;;4.90;;
21615;SDS011;10970;48.714;9.584;2023-03-30T07:49:32;10.90;;;5.47;;
21615;SDS011;10970;48.714;9.584;2023-03-30T07:51:58;13.23;;;4.30;;
21615;SDS011;10970;48.714;9.584;2023-03-30T07:54:24;9.67;;;3.77;;
21615;SDS011;10970;48.714;9.584;2023-03-30T07:56:49;11.47;;;4.60;;
21615;SDS011;10970;48.714;9.584;2023-03-30T07:59:17;11.80;;;4.20;;
21615;SDS011;10970;48.714;9.584;2023-03-30T08:01:44;11.23;;;4.40;;
21615;SDS011;10970;48.714;9.584;2023-03-30T08:04:10;11.93;;;3.80;;
21615;SDS011;10970;48.714;9.584;2023-03-30T08:06:37;7.23;;;3.93;;
21615;SDS011;10970;48.714;9.584;2023-03-30T08:09:03;5.90;;;4.37;;
21615;SDS011;10970;48.714;9.584;2023-03-30T08:11:29;9.03;;;3.30;;
21615;SDS011;10970;48.714;9.584;2023-03-30T08:13:57;8.20;;;3.80;;
21615;SDS011;10970;48.714;9.584;2023-03-30T08:16:22;11.67;;;4.03;;
21615;SDS011;10970;48.714;9.584;2023-03-30T08:18:48;9.60;;;3.03;;
21615;SDS011;10970;48.714;9.584;2023-03-30T08:21:13;12.00;;;4.03;;
21615;SDS011;10970;48.714;9.584;2023-03-30T08:23:39;7.47;;;4.17;;
21615;SDS011;10970;48.714;9.584;2023-03-30T08:26:05;7.57;;;3.40;;
21615;SDS011;10970;48.714;9.584;2023-03-30T08:28:30;5.53;;;3.27;;
21615;SDS011;10970;48.714;9.584;2023-03-30T08:31:01;8.13;;;3.50;;
21615;SDS011;10970;48.714;9.584;2023-03-30T08:33:30;12.47;;;3.73;;
21615;SDS011;10970;48.714;9.584;2023-03-30T08:35:56;4.90;;;3.40;;
21615;SDS011;10970;48.714;9.584;2023-03-30T08:38:22;23.20;;;12.27;;
21615;SDS011;10970;48.714;9.584;2023-03-30T08:40:48;19.13;;;11.80;;
21615;SDS011;10970;48.714;9.584;2023-03-30T08:45:59;10.03;;;4.73;;
21615;SDS011;10970;48.714;9.584;2023-03-30T08:48:27;9.73;;;4.07;;
21615;SDS011;10970;48.714;9.584;2023-03-30T08:51:00;10.23;;;4.37;;
21615;SDS011;10970;48.714;9.584;2023-03-30T08:53:32;12.07;;;5.20;;
21615;SDS011;10970;48.714;9.584;2023-03-30T08:56:08;10.93;;;4.60;;
21615;SDS011;10970;48.714;9.584;2023-03-30T09:06:56;5.67;;;3.43;;
21615;SDS011;10970;48.714;9.584;2023-03-30T09:09:28;5.33;;;3.70;;
21615;SDS011;10970;48.714;9.584;2023-03-30T09:12:06;10.33;;;3.93;;
21615;SDS011;10970;48.714;9.584;2023-03-30T09:14:41;10.30;;;4.43;;
21615;SDS011;10970;48.714;9.584;2023-03-30T09:17:28;6.10;;;3.83;;
21615;SDS011;10970;48.714;9.584;2023-03-30T09:20:02;8.00;;;3.53;;
21615;SDS011;10970;48.714;9.584;2023-03-30T09:22:40;7.00;;;3.20;;
21615;SDS011;10970;48.714;9.584;2023-03-30T09:25:14;6.00;;;4.13;;
21615;SDS011;10970;48.714;9.584;2023-03-30T09:27:50;5.80;;;4.13;;
21615;SDS011;10970;48.714;9.584;2023-03-30T09:30:19;11.27;;;3.50;;
21615;SDS011;10970;48.714;9.584;2023-03-30T09:35:28;7.17;;;3.60;;
21615;SDS011;10970;48.714;9.584;2023-03-30T09:38:14;7.03;;;5.30;;
21615;SDS011;10970;48.714;9.584;2023-03-30T09:43:42;5.10;;;3.47;;
21615;SDS011;10970;48.714;9.584;2023-03-30T09:46:10;3.63;;;2.73;;
21615;SDS011;10970;48.714;9.584;2023-03-30T09:48:38;9.40;;;3.53;;
21615;SDS011;10970;48.714;9.584;2023-03-30T09:51:38;2.97;;;2.70;;
21615;SDS011;10970;48.714;9.584;2023-03-30T09:53:58;3.43;;;2.80;;
21615;SDS011;10970;48.714;9.584;2023-03-30T09:56:27;5.80;;;3.37;;
21615;SDS011;10970;48.714;9.584;2023-03-30T10:01:51;8.67;;;3.07;;
21615;SDS011;10970;48.714;9.584;2023-03-30T10:04:17;3.50;;;3.13;;
21615;SDS011;10970;48.714;9.584;2023-03-30T10:06:44;6.10;;;3.23;;
21615;SDS011;10970;48.714;9.584;2023-03-30T10:09:12;3.90;;;3.00;;
21615;SDS011;10970;48.714;9.584;2023-03-30T10:14:27;6.40;;;2.60;;
21615;SDS011;10970;48.714;9.584;2023-03-30T10:16:58;4.20;;;2.80;;
21615;SDS011;10970;48.714;9.584;2023-03-30T10:19:25;5.10;;;2.70;;
21615;SDS011;10970;48.714;9.584;2023-03-30T10:21:52;4.10;;;3.00;;
21615;SDS011;10970;48.714;9.584;2023-03-30T10:24:20;8.80;;;3.50;;
21615;SDS011;10970;48.714;9.584;2023-03-30T10:26:57;3.73;;;3.23;;
21615;SDS011;10970;48.714;9.584;2023-03-30T10:29:33;5.30;;;3.33;;
21615;SDS011;10970;48.714;9.584;2023-03-30T10:32:21;4.33;;;3.23;;
21615;SDS011;10970;48.714;9.584;2023-03-30T10:34:54;4.80;;;3.30;;
21615;SDS011;10970;48.714;9.584;2023-03-30T10:37:29;2.83;;;2.40;;
21615;SDS011;10970;48.714;9.584;2023-03-30T10:40:10;5.33;;;3.20;;
21615;SDS011;10970;48.714;9.584;2023-03-30T10:42:39;5.60;;;3.27;;
21615;SDS011;10970;48.714;9.584;2023-03-30T10:45:06;3.87;;;2.70;;
21615;SDS011;10970;48.714;9.584;2023-03-30T11:03:46;2.60;;;2.20;;
21615;SDS011;10970;48.714;9.584;2023-03-30T11:06:23;3.20;;;2.60;;
21615;SDS011;10970;48.714;9.584;2023-03-30T11:08:54;5.90;;;2.73;;
21615;SDS011;10970;48.714;9.584;2023-03-30T11:11:26;6.73;;;3.40;;
21615;SDS011;10970;48.714;9.584;2023-03-30T11:14:01;3.37;;;2.93;;
21615;SDS011;10970;48.714;9.584;2023-03-30T11:22:03;3.57;;;2.67;;
21615;SDS011;10970;48.714;9.584;2023-03-30T11:24:37;2.33;;;2.13;;
21615;SDS011;10970;48.714;9.584;2023-03-30T11:32:39;8.83;;;3.37;;
21615;SDS011;10970;48.714;9.584;2023-03-30T11:38:20;6.40;;;3.10;;
21615;SDS011;10970;48.714;9.584;2023-03-30T11:40:59;4.20;;;2.60;;
21615;SDS011;10970;48.714;9.584;2023-03-30T11:43:46;5.10;;;2.97;;
21615;SDS011;10970;48.714;9.584;2023-03-30T11:46:22;3.70;;;2.93;;
21615;SDS011;10970;48.714;9.584;2023-03-30T11:49:12;4.13;;;2.40;;
21615;SDS011;10970;48.714;9.584;2023-03-30T11:54:48;3.70;;;2.13;;
21615;SDS011;10970;48.714;9.584;2023-03-30T11:57:36;4.60;;;2.60;;
21615;SDS011;10970;48.714;9.584;2023-03-30T12:05:20;3.30;;;2.63;;
21615;SDS011;10970;48.714;9.584;2023-03-30T12:10:24;4.40;;;2.93;;
21615;SDS011;10970;48.714;9.584;2023-03-30T12:12:57;5.40;;;3.27;;
21615;SDS011;10970;48.714;9.584;2023-03-30T12:18:07;6.20;;;3.10;;
21615;SDS011;10970;48.714;9.584;2023-03-30T12:20:45;6.57;;;3.13;;
21615;SDS011;10970;48.714;9.584;2023-03-30T12:26:27;6.03;;;4.43;;
21615;SDS011;10970;48.714;9.584;2023-03-30T12:29:12;7.40;;;3.83;;
21615;SDS011;10970;48.714;9.584;2023-03-30T12:34:19;9.37;;;3.63;;
21615;SDS011;10970;48.714;9.584;2023-03-30T12:36:52;4.03;;;3.63;;
21615;SDS011;10970;48.714;9.584;2023-03-30T12:39:26;4.93;;;3.60;;
21615;SDS011;10970;48.714;9.584;2023-03-30T12:41:59;9.73;;;3.60;;
21615;SDS011;10970;48.714;9.584;2023-03-30T12:44:34;4.20;;;3.30;;
21615;SDS011;10970;48.714;9.584;2023-03-30T13:03:01;3.50;;;2.77;;
21615;SDS011;10970;48.714;9.584;2023-03-30T13:05:30;7.57;;;3.50;;
21615;SDS011;10970;48.714;9.584;2023-03-30T13:08:03;5.13;;;3.00;;
21615;SDS011;10970;48.714;9.584;2023-03-30T13:10:48;3.13;;;2.57;;
21615;SDS011;10970;48.714;9.584;2023-03-30T13:13:20;3.23;;;2.43;;
21615;SDS011;10970;48.714;9.584;2023-03-30T13:16:06;2.80;;;2.60;;
21615;SDS011;10970;48.714;9.584;2023-03-30T13:18:37;5.23;;;2.50;;
21615;SDS011;10970;48.714;9.584;2023-03-30T13:21:19;6.27;;;3.67;;
21615;SDS011;10970;48.714;9.584;2023-03-30T13:24:00;6.43;;;3.50;;
21615;SDS011;10970;48.714;9.584;2023-03-30T13:26:28;5.60;;;2.70;;
21615;SDS011;10970;48.714;9.584;2023-03-30T13:29:06;2.40;;;2.20;;
21615;SDS011;10970;48.714;9.584;2023-03-30T13:31:58;4.43;;;3.23;;
21615;SDS011;10970;48.714;9.584;2023-03-30T13:35:35;8.40;;;3.20;;
21615;SDS011;10970;48.714;9.584;2023-03-30T13:40:27;4.63;;;2.73;;
21615;SDS011;10970;48.714;9.584;2023-03-30T13:50:58;6.10;;;2.50;;
21615;SDS011;10970;48.714;9.584;2023-03-30T13:53:27;6.13;;;3.10;;
21615;SDS011;10970;48.714;9.584;2023-03-30T13:56:03;2.17;;;1.93;;
21615;SDS011;10970;48.714;9.584;2023-03-30T13:58:31;3.40;;;2.67;;
21615;SDS011;10970;48.714;9.584;2023-03-30T14:01:08;4.00;;;3.10;;
21615;SDS011;10970;48.714;9.584;2023-03-30T14:03:40;3.73;;;2.60;;
21615;SDS011;10970;48.714;9.584;2023-03-30T14:06:20;2.73;;;2.03;;
21615;SDS011;10970;48.714;9.584;2023-03-30T14:08:57;5.03;;;3.30;;
21615;SDS011;10970;48.714;9.584;2023-03-30T14:11:36;8.87;;;5.17;;
21615;SDS011;10970;48.714;9.584;2023-03-30T14:14:44;2.57;;;2.37;;
21615;SDS011;10970;48.714;9.584;2023-03-30T14:17:16;3.87;;;2.10;;
21615;SDS011;10970;48.714;9.584;2023-03-30T14:22:43;5.33;;;2.77;;
21615;SDS011;10970;48.714;9.584;2023-03-30T14:25:27;2.27;;;2.07;;
21615;SDS011;10970;48.714;9.584;2023-03-30T14:27:56;3.83;;;2.47;;
21615;SDS011;10970;48.714;9.584;2023-03-30T14:30:49;2.80;;;2.17;;
21615;SDS011;10970;48.714;9.584;2023-03-30T14:33:20;2.87;;;1.97;;
21615;SDS011;10970;48.714;9.584;2023-03-30T14:35:47;3.97;;;2.20;;
21615;SDS011;10970;48.714;9.584;2023-03-30T14:38:16;3.00;;;2.10;;
21615;SDS011;10970;48.714;9.584;2023-03-30T14:40:46;4.20;;;2.30;;
21615;SDS011;10970;48.714;9.584;2023-03-30T14:43:23;2.93;;;1.63;;
21615;SDS011;10970;48.714;9.584;2023-03-30T14:45:52;4.37;;;2.30;;
21615;SDS011;10970;48.714;9.584;2023-03-30T14:48:22;3.60;;;1.80;;
21615;SDS011;10970;48.714;9.584;2023-03-30T14:50:57;2.10;;;1.77;;
21615;SDS011;10970;48.714;9.584;2023-03-30T14:53:25;2.57;;;1.87;;
21615;SDS011;10970;48.714;9.584;2023-03-30T14:55:52;1.53;;;1.20;;
21615;SDS011;10970;48.714;9.584;2023-03-30T14:58:22;2.20;;;2.07;;
21615;SDS011;10970;48.714;9.584;2023-03-30T15:00:57;3.50;;;1.63;;
21615;SDS011;10970;48.714;9.584;2023-03-30T15:03:26;3.07;;;1.20;;
21615;SDS011;10970;48.714;9.584;2023-03-30T15:05:54;3.93;;;1.67;;
21615;SDS011;10970;48.714;9.584;2023-03-30T15:08:26;4.37;;;1.87;;
21615;SDS011;10970;48.714;9.584;2023-03-30T15:11:06;2.17;;;1.83;;
21615;SDS011;10970;48.714;9.584;2023-03-30T15:13:48;1.97;;;1.53;;
21615;SDS011;10970;48.714;9.584;2023-03-30T15:16:22;3.90;;;1.77;;
21615;SDS011;10970;48.714;9.584;2023-03-30T15:18:52;3.10;;;1.70;;
21615;SDS011;10970;48.714;9.584;2023-03-30T15:21:23;3.10;;;1.53;;
21615;SDS011;10970;48.714;9.584;2023-03-30T15:23:49;4.47;;;1.87;;
21615;SDS011;10970;48.714;9.584;2023-03-30T15:26:15;3.00;;;1.80;;
21615;SDS011;10970;48.714;9.584;2023-03-30T15:28:50;2.03;;;1.43;;
21615;SDS011;10970;48.714;9.584;2023-03-30T15:31:17;4.43;;;1.77;;
21615;SDS011;10970;48.714;9.584;2023-03-30T15:33:45;3.33;;;1.90;;
21615;SDS011;10970;48.714;9.584;2023-03-30T15:38:48;3.07;;;1.20;;
21615;SDS011;10970;48.714;9.584;2023-03-30T15:41:22;1.83;;;1.40;;
21615;SDS011;10970;48.714;9.584;2023-03-30T15:44:31;1.80;;;1.33;;
21615;SDS011;10970;48.714;9.584;2023-03-30T15:47:01;1.43;;;1.10;;
21615;SDS011;10970;48.714;9.584;2023-03-30T15:49:29;1.40;;;1.27;;
21615;SDS011;10970;48.714;9.584;2023-03-30T15:52:20;2.73;;;1.50;;
21615;SDS011;10970;48.714;9.584;2023-03-30T15:54:49;1.87;;;1.30;;
21615;SDS011;10970;48.714;9.584;2023-03-30T15:57:38;1.23;;;1.13;;
21615;SDS011;10970;48.714;9.584;2023-03-30T16:00:14;1.43;;;1.23;;
21615;SDS011;10970;48.714;9.584;2023-03-30T16:02:48;3.27;;;1.47;;
21615;SDS011;10970;48.714;9.584;2023-03-30T16:05:21;2.37;;;1.10;;
21615;SDS011;10970;48.714;9.584;2023-03-30T16:07:49;2.40;;;1.30;;
21615;SDS011;10970;48.714;9.584;2023-03-30T16:10:16;2.80;;;1.40;;
21615;SDS011;10970;48.714;9.584;2023-03-30T16:12:48;1.27;;;0.73;;
21615;SDS011;10970;48.714;9.584;2023-03-30T16:15:19;3.50;;;1.53;;
21615;SDS011;10970;48.714;9.584;2023-03-30T16:17:47;1.73;;;1.10;;
21615;SDS011;10970;48.714;9.584;2023-03-30T16:20:18;3.10;;;1.03;;
21615;SDS011;10970;48.714;9.584;2023-03-30T16:22:54;1.93;;;1.37;;
21615;SDS011;10970;48.714;9.584;2023-03-30T16:25:21;2.90;;;1.40;;
21615;SDS011;10970;48.714;9.584;2023-03-30T16:27:50;2.40;;;1.37;;
21615;SDS011;10970;48.714;9.584;2023-03-30T16:30:24;3.33;;;1.47;;
21615;SDS011;10970;48.714;9.584;2023-03-30T16:32:53;2.90;;;1.27;;
21615;SDS011;10970;48.714;9.584;2023-03-30T16:35:19;2.20;;;1.47;;
21615;SDS011;10970;48.714;9.584;2023-03-30T16:37:46;1.30;;;1.20;;
21615;SDS011;10970;48.714;9.584;2023-03-30T16:40:14;3.13;;;0.93;;
21615;SDS011;10970;48.714;9.584;2023-03-30T16:43:00;1.63;;;1.20;;
21615;SDS011;10970;48.714;9.584;2023-03-30T16:45:26;2.30;;;1.50;;
21615;SDS011;10970;48.714;9.584;2023-03-30T16:47:52;0.80;;;0.70;;
21615;SDS011;10970;48.714;9.584;2023-03-30T16:52:48;2.00;;;1.30;;
21615;SDS011;10970;48.714;9.584;2023-03-30T16:55:15;1.57;;;1.00;;
21615;SDS011;10970;48.714;9.584;2023-03-30T16:57:42;3.03;;;1.23;;
21615;SDS011;10970;48.714;9.584;2023-03-30T17:00:11;5.27;;;1.00;;
21615;SDS011;10970;48.714;9.584;2023-03-30T17:02:42;1.10;;;0.80;;
21615;SDS011;10970;48.714;9.584;2023-03-30T17:05:07;3.50;;;1.00;;
21615;SDS011;10970;48.714;9.584;2023-03-30T17:07:33;1.80;;;1.20;;
21615;SDS011;10970;48.714;9.584;2023-03-30T17:10:05;2.40;;;0.97;;
21615;SDS011;10970;48.714;9.584;2023-03-30T17:12:53;1.07;;;0.80;;
21615;SDS011;10970;48.714;9.584;2023-03-30T17:15:20;5.63;;;1.27;;
21615;SDS011;10970;48.714;9.584;2023-03-30T17:17:47;1.10;;;0.87;;
21615;SDS011;10970;48.714;9.584;2023-03-30T17:20:34;2.43;;;0.90;;